Terminal Aerodrome Forecast
Issued by NWS Twin Cities, MN

Home | Current Version | Previous Version | Graphics & Text | Print | Product List | Glossary On
Versions: 1 2 3 4 5 6 7 8 9 10 11 12 13 14 15 16 17 18 19 20 21 22 23 24 25 26
000
FTUS43 KMPX 260541
TAFMSP
TAF
KMSP 260541Z 2606/2712 15006KT P6SM BKN090
     FM261400 16007KT P6SM SCT050 SCT150
     FM261900 22008KT P6SM SCT050 PROB30 2619/2622 -TSRA BKN040CB
     FM270100 26006KT P6SM SKC=

USA.gov is the U.S. government's official web portal to all federal, state and local government web resources and services.